Airfield :
LOGIN :

Register | Disclaimer

   EN    FR    IT 

 










Legend :    VFR   Marginal VFR   IFR   Intensive IFR   Very Intensive IFR
Visi :
Ceiling :
>= 8 km
>= 3000ft
5 to 8 km
1000 to 3000 ft
1500m to 5 km
500 to 1000 ft
800 to 1500m
200 to 500 ft
< 800m
< 200 ft
Symbols :   Thunderstorms  Fog  Heavy snow  Heavy precipitations  Wind > 20 kt
SIGMETs :     Misc.  Thunderstorms  Icing  Turbulence  Mountain Waves  Volcanic Ashes






- Airport Elevation : 348 ft
- IATA code : LDV


LFRJ - Landivisiau

CURRENT METAR :
  • 280730Z AUTO 25021KT 9999 BKN006 BKN013 OVC026 12/11 Q1010 TEMPO 1500 RADZ OVC001 BECMG 26015G25KT

EXPIRED METARs :
  • 280700Z AUTO 25018KT 3700 -RADZ BR OVC005 12/12 Q1010 TEMPO 1500 RADZ OVC001 BECMG 26015G25KT
  • 280630Z AUTO 25017KT 6000 -RADZ OVC006 12/12 Q1010 TEMPO 1500 RADZ OVC001 BECMG 26015G25KT
  • 280600Z AUTO 25018KT 6000 2900 -RA OVC007 12/11 Q1010 TEMPO 1500 RADZ OVC001 BECMG 26015G25KT
  • 280530Z AUTO 25018KT 6000 DZ OVC005 12/12 Q1010 TEMPO 1500 RADZ OVC001 BECMG 26015G25KT
  • 280500Z AUTO 25018KT 4900 -DZ BR OVC005 12/12 Q1010

TAF TAF LFRJ
Valid from the 28 at 06:00 until the 28 at 15:00 UTC


280500Z 2806/2815 26015G25KT 4500 BR OVC005
TEMPO 2806/2815 1500 RADZ OVC001



MET'MAP, your aeronautical weather chart ! - Copyright ORBIFLY December 2007 - Disclaimer

ORBIFLY MET'MAP TEAM :

Programming & Development : Alexandra Zaïnal
Concept & original design : Baudouin d'Aumeries
Assistance for programming : Marc-Olivier Méhu
Technical & hardware support : Manuel Goepfert

Contact : metmap@orbifly.com




SOURCES & CREDITS :

   NOAA